Decoded Metar for LEDA (LLEIDA in SPAIN) (IATA:ILD) | Meteo·Mobile Aviation Weather
aviador You're here:

LEDA Decoded Metar

LLEIDA in SPAIN
Report Time2018-10-17 05:30:00
UTC Time2018-10-17 05:37:36
Flight Rules vfr VFR
Wind140° at 02 kt
W.Decomp.*RWY 13: 2.0 kt HW 0.3 kt RCW
W.Rank140° ranks 26
Current wind is below 140° avg. (4.8)
Visibility9999 m
Phenomena:N/A
Clouds:N/A
Expected CloudBase > 400 ft AGL from Temp-Dew spread
CeilingNone
Temp14°C (ISA +1)
Dew Point13°C (94% RH)
QNH1017 hPa
Density Alt1,375 ft
Elevation1,152 ft
Report Wrong Elevation
Raw Report
METAR LEDA 170530Z AUTO 14002KT CAVOK 14/13 Q1017=

Extra information for LEDA:More info

Metar Taf Metar & Taf Last 4 Metars F.Rules Stats Wind Profile Meteogram Temp Stats Airport Information Weather charts Add Link Nearby VenuesMetar ALERT Operation Metar Decoded Social comments